Time;durP1;ratioP1;P1;durP2;ratioP2;P2;SDS_P1;SDS_P2;PMS_P1;PMS_P2;Temp;Humidity;BMP_temperature;BMP_pressure;BME280_temperature;BME280_humidity;BME280_pressure;Samples;Min_cycle;Max_cycle;Signal;HPM_P1;HPM_P2
2022/07/22 00:01:45;;;;;;;9.90;8.33;;;;;;;21.33;72.13;156849.25;5078755;28;20441;-77
2022/07/22 00:04:12;;;;;;;8.73;7.97;;;;;;;21.31;72.23;156842.72;5096359;28;20526;-77
2022/07/22 00:06:39;;;;;;;8.57;7.67;;;;;;;21.29;72.65;156837.50;5077022;28;20433;-77
2022/07/22 00:09:07;;;;;;;9.43;8.63;;;;;;;21.23;75.83;156824.41;5077508;28;20444;-77
2022/07/22 00:11:33;;;;;;;10.07;9.03;;;;;;;21.13;76.44;156797.00;5076774;28;20439;-77
2022/07/22 00:14:00;;;;;;;10.17;7.80;;;;;;;21.10;75.85;156789.22;5095620;28;20447;-77
2022/07/22 00:16:27;;;;;;;9.20;8.27;;;;;;;21.08;75.09;156783.97;5076787;28;20499;-77
2022/07/22 00:18:54;;;;;;;9.53;7.10;;;;;;;21.06;74.21;156780.06;5094670;28;20472;-77
2022/07/22 00:21:20;;;;;;;8.83;8.03;;;;;;;21.06;75.01;156780.06;5077133;28;20650;-77
2022/07/22 00:23:48;;;;;;;8.23;7.17;;;;;;;21.06;74.82;156778.69;5094761;28;20437;-77
2022/07/22 00:26:16;;;;;;;9.60;8.70;;;;;;;21.02;76.77;156769.56;5076527;28;20498;-77
2022/07/22 00:28:43;;;;;;;8.93;7.87;;;;;;;21.00;76.05;156764.34;5077188;28;20476;-77
2022/07/22 00:31:10;;;;;;;8.20;7.40;;;;;;;20.95;77.03;156750.00;5060738;28;20486;-77
2022/07/22 00:33:36;;;;;;;8.50;7.70;;;;;;;20.91;78.13;156739.56;5095838;28;20436;-82
2022/07/22 00:36:04;;;;;;;8.23;7.53;;;;;;;20.89;77.54;156734.38;5077100;28;20479;-82
2022/07/22 00:38:31;;;;;;;10.33;9.33;;;;;;;20.90;79.06;156738.25;5095021;28;21597;-82
2022/07/22 00:40:57;;;;;;;8.27;7.40;;;;;;;20.87;77.99;156729.09;5094867;28;20919;-82
2022/07/22 00:43:25;;;;;;;9.50;8.60;;;;;;;20.91;77.92;156739.56;5093304;28;20433;-83
2022/07/22 00:45:52;;;;;;;8.50;7.73;;;;;;;20.87;76.57;156729.09;5060095;28;20447;-82
2022/07/22 00:48:19;;;;;;;8.60;7.83;;;;;;;20.85;76.21;156725.22;5076485;28;20443;-82
2022/07/22 00:50:46;;;;;;;9.13;8.23;;;;;;;20.88;77.57;156731.75;5094970;28;20527;-82
2022/07/22 00:53:13;;;;;;;9.40;8.50;;;;;;;20.86;76.39;156726.53;5076352;28;20519;-82
2022/07/22 00:55:39;;;;;;;10.53;9.40;;;;;;;20.86;76.29;156727.84;5076775;28;20463;-82
2022/07/22 00:58:06;;;;;;;8.67;7.87;;;;;;;20.85;77.97;156725.22;5094215;28;20472;-83
2022/07/22 01:00:34;;;;;;;8.93;8.03;;;;;;;20.82;76.21;156716.06;5076801;28;20444;-83
2022/07/22 01:03:01;;;;;;;8.40;7.70;;;;;;;20.79;75.48;156709.53;5076134;28;21253;-83
2022/07/22 01:05:28;;;;;;;8.70;7.90;;;;;;;20.78;76.02;156705.66;5093571;28;20494;-83
2022/07/22 01:07:54;;;;;;;9.77;8.80;;;;;;;20.78;75.94;156705.66;5095369;28;20425;-82
2022/07/22 01:10:22;;;;;;;9.00;8.10;;;;;;;20.68;78.48;156679.56;5076330;28;20535;-82
2022/07/22 01:12:48;;;;;;;9.30;8.50;;;;;;;20.69;78.47;156682.16;5075668;28;20536;-82
2022/07/22 01:15:16;;;;;;;9.57;8.67;;;;;;;20.62;77.30;156666.47;5059722;28;20476;-82
2022/07/22 01:17:44;;;;;;;10.07;9.07;;;;;;;20.62;77.63;156666.47;5075764;28;20437;-82
2022/07/22 01:20:13;;;;;;;9.30;8.50;;;;;;;20.59;77.30;156657.38;5076224;28;20453;-81
2022/07/22 01:22:40;;;;;;;9.90;8.90;;;;;;;20.57;78.95;156653.44;5093671;28;20448;-81
2022/07/22 01:25:07;;;;;;;10.33;9.33;;;;;;;20.61;80.38;156663.91;5059385;28;20452;-81
2022/07/22 01:27:34;;;;;;;9.67;8.70;;;;;;;20.55;80.93;156648.22;5075631;28;20441;-82
2022/07/22 01:30:01;;;;;;;9.90;8.90;;;;;;;20.55;78.00;156648.22;5059077;28;20441;-82
2022/07/22 01:32:28;;;;;;;9.60;8.70;;;;;;;20.53;78.72;156641.72;5093587;28;20430;-81
2022/07/22 01:34:55;;;;;;;10.13;9.23;;;;;;;20.50;77.82;156635.19;5075992;28;20445;-82
2022/07/22 01:37:23;;;;;;;9.43;8.63;;;;;;;20.50;79.99;156633.88;5093468;28;20828;-82
2022/07/22 01:39:50;;;;;;;10.10;9.20;;;;;;;20.42;78.36;156614.31;5092953;28;20911;-81
2022/07/22 01:42:16;;;;;;;9.40;8.60;;;;;;;20.43;79.49;156615.63;5075214;28;20440;-82
2022/07/22 01:44:44;;;;;;;9.83;8.93;;;;;;;20.40;78.35;156607.78;5076785;28;20563;-80
2022/07/22 01:47:11;;;;;;;12.20;8.67;;;;;;;20.38;78.21;156603.91;5075514;28;20445;-80
2022/07/22 01:49:38;;;;;;;10.50;9.60;;;;;;;20.43;77.50;156616.94;5075689;28;20444;-81
2022/07/22 01:52:06;;;;;;;10.03;9.03;;;;;;;20.34;78.41;156593.44;5075448;28;20475;-80
2022/07/22 01:54:34;;;;;;;10.73;9.67;;;;;;;20.32;78.59;156586.94;5075289;28;20453;-81
2022/07/22 01:57:01;;;;;;;9.83;8.93;;;;;;;20.33;78.18;156590.81;5074772;28;21079;-80
2022/07/22 01:59:28;;;;;;;10.30;9.40;;;;;;;20.36;78.56;156597.38;5075188;28;20452;-81
2022/07/22 02:01:56;;;;;;;10.33;9.23;;;;;;;20.29;81.27;156580.41;5075295;28;20429;-80
2022/07/22 02:04:24;;;;;;;9.80;8.90;;;;;;;20.25;81.50;156570.00;5093497;28;20440;-81
2022/07/22 02:06:51;;;;;;;10.33;9.33;;;;;;;20.15;81.89;156543.81;5075017;28;20502;-81
2022/07/22 02:09:18;;;;;;;10.90;9.80;;;;;;;20.06;80.20;156520.38;5093317;28;20433;-80
2022/07/22 02:11:50;;;;;;;9.60;8.70;;;;;;;20.05;80.12;156517.75;5092980;28;20430;-80
2022/07/22 02:14:17;;;;;;;10.00;9.10;;;;;;;20.02;80.09;156509.91;5074687;28;20445;-81
2022/07/22 02:16:45;;;;;;;9.80;8.87;;;;;;;20.05;79.91;156517.75;5074779;28;20848;-81
2022/07/22 02:19:12;;;;;;;9.90;8.90;;;;;;;20.04;79.30;156516.44;5093433;28;20916;-80
2022/07/22 02:21:39;;;;;;;9.63;8.73;;;;;;;20.04;78.98;156515.19;5074878;28;20486;-80
2022/07/22 02:24:06;;;;;;;10.00;9.00;;;;;;;20.06;81.13;156520.38;5091955;28;20445;-80
2022/07/22 02:26:33;;;;;;;10.40;9.50;;;;;;;20.01;79.42;156507.34;5058025;28;20519;-80
2022/07/22 02:29:01;;;;;;;11.10;10.00;;;;;;;20.02;80.10;156509.91;5074567;28;20448;-80
2022/07/22 02:31:28;;;;;;;9.63;8.73;;;;;;;20.18;78.53;156551.66;5074929;28;20450;-80
2022/07/22 02:33:55;;;;;;;10.67;9.57;;;;;;;20.14;78.63;156539.94;5074664;28;20433;-80
2022/07/22 02:36:26;;;;;;;9.93;9.03;;;;;;;20.07;79.78;156522.94;5074226;28;20464;-81
2022/07/22 02:38:53;;;;;;;10.40;9.50;;;;;;;20.08;81.15;156525.59;5074243;28;20460;-81
2022/07/22 02:41:20;;;;;;;10.43;9.43;;;;;;;20.05;79.96;156517.75;5091591;28;20433;-82
2022/07/22 02:43:53;;;;;;;10.87;9.87;;;;;;;20.04;80.18;156515.19;5058445;28;20453;-81
2022/07/22 02:46:21;;;;;;;10.67;9.60;;;;;;;20.01;83.73;156507.34;5092560;28;20827;-81
2022/07/22 02:48:49;;;;;;;12.13;10.00;;;;;;;19.94;81.09;156489.06;5057544;28;20464;-81
2022/07/22 02:51:18;;;;;;;10.47;9.57;;;;;;;19.86;81.37;156468.19;5074388;28;20431;-81
2022/07/22 02:53:45;;;;;;;11.27;10.20;;;;;;;19.76;82.15;156442.13;5074013;28;20479;-81
2022/07/22 02:56:12;;;;;;;11.40;9.70;;;;;;;19.74;82.58;156438.22;5090633;28;20533;-80
2022/07/22 02:58:41;;;;;;;11.63;10.53;;;;;;;19.64;83.69;156410.84;5054047;28;20468;-80
2022/07/22 03:01:08;;;;;;;10.90;9.90;;;;;;;19.68;83.93;156421.25;5070838;28;20442;-81
2022/07/22 03:03:45;;;;;;;11.87;10.77;;;;;;;19.64;83.93;156412.16;5053945;28;20816;-81
2022/07/22 03:06:12;;;;;;;10.43;9.33;;;;;;;19.63;83.66;156408.22;5070209;28;20438;-81
2022/07/22 03:08:47;;;;;;;10.87;9.77;;;;;;;19.64;84.42;156410.84;5053975;28;20660;-80
2022/07/22 03:11:15;;;;;;;11.13;10.13;;;;;;;19.58;85.19;156395.19;5070204;28;20438;-81
2022/07/22 03:13:42;;;;;;;12.53;11.10;;;;;;;19.42;86.29;156356.09;5087189;28;20453;-80
2022/07/22 03:16:09;;;;;;;12.60;11.30;;;;;;;19.41;85.44;156353.47;5069970;28;20813;-80
2022/07/22 03:18:37;;;;;;;11.40;10.30;;;;;;;19.47;85.38;156367.81;5053897;28;20442;-81
2022/07/22 03:21:05;;;;;;;11.47;10.33;;;;;;;19.46;87.12;156365.19;5070004;28;20467;-81
2022/07/22 03:23:32;;;;;;;11.50;10.27;;;;;;;19.42;87.48;156356.09;5069745;28;20792;-85
2022/07/22 03:25:59;;;;;;;11.80;10.70;;;;;;;19.42;85.33;156356.09;5069788;28;20437;-85
2022/07/22 03:28:27;;;;;;;13.53;10.53;;;;;;;19.40;86.80;156350.91;5052170;28;20449;-84
2022/07/22 03:30:54;;;;;;;11.53;10.53;;;;;;;19.30;87.94;156324.75;5070895;28;20880;-85
2022/07/22 03:33:21;;;;;;;11.97;10.77;;;;;;;19.20;88.07;156298.69;5053316;28;20426;-85
2022/07/22 03:35:48;;;;;;;11.70;10.50;;;;;;;19.23;87.02;156305.19;5070045;28;20477;-85
2022/07/22 03:38:16;;;;;;;11.67;10.67;;;;;;;19.23;87.72;156306.53;5053641;28;20495;-85
2022/07/22 03:40:44;;;;;;;12.20;11.00;;;;;;;19.27;86.81;156316.91;5070213;28;20463;-85
2022/07/22 03:43:10;;;;;;;11.83;10.73;;;;;;;19.24;88.71;156309.13;5053230;28;20438;-85
2022/07/22 03:45:38;;;;;;;14.80;11.27;;;;;;;19.19;88.63;156296.13;5053281;28;20452;-85
2022/07/22 03:48:06;;;;;;;12.47;11.17;;;;;;;19.11;89.15;156273.94;5053396;28;20461;-84
2022/07/22 03:50:37;;;;;;;13.00;11.80;;;;;;;19.11;88.37;156273.94;5071536;28;20820;-85
2022/07/22 03:53:05;;;;;;;12.57;11.20;;;;;;;19.14;87.95;156283.03;5053541;28;20441;-85
2022/07/22 03:55:37;;;;;;;13.20;11.90;;;;;;;19.07;88.67;156264.81;5069877;28;20438;-85
2022/07/22 03:58:04;;;;;;;12.47;11.30;;;;;;;19.08;88.43;156267.44;5053310;28;20473;-84
2022/07/22 04:00:31;;;;;;;12.13;11.00;;;;;;;19.09;88.65;156270.00;5070071;28;20591;-85
2022/07/22 04:02:59;;;;;;;12.43;11.23;;;;;;;19.05;88.90;156259.59;5053094;28;20921;-85
2022/07/22 04:05:46;;;;;;;12.10;10.90;;;;;;;18.96;88.91;156236.13;5069356;28;20811;-85
2022/07/22 04:08:17;;;;;;;11.73;10.63;;;;;;;19.02;90.62;156251.78;5053067;28;20446;-85
2022/07/22 04:10:45;;;;;;;12.77;10.87;;;;;;;18.97;92.17;156238.75;5053266;28;20434;-85
2022/07/22 04:13:12;;;;;;;12.23;11.03;;;;;;;18.91;92.60;156223.09;5052977;28;20444;-85
2022/07/22 04:15:45;;;;;;;12.87;11.50;;;;;;;18.84;91.41;156206.19;5052719;28;20444;-85
2022/07/22 04:18:12;;;;;;;12.27;11.17;;;;;;;18.82;93.60;156200.94;5070093;28;20509;-85
2022/07/22 04:20:38;;;;;;;13.13;11.93;;;;;;;18.71;92.92;156171.00;5070178;28;20472;-85
2022/07/22 04:23:25;;;;;;;14.10;12.20;;;;;;;18.75;92.58;156181.41;5048082;28;20430;-84
2022/07/22 04:26:02;;;;;;;12.37;11.27;;;;;;;18.86;91.77;156210.09;5055900;28;20934;-85
2022/07/22 04:28:30;;;;;;;16.13;11.43;;;;;;;18.85;91.54;156208.78;5056500;28;20449;-85
2022/07/22 04:30:56;;;;;;;11.93;10.73;;;;;;;18.89;91.59;156217.91;5073149;28;20928;-84
2022/07/22 04:33:24;;;;;;;12.47;11.27;;;;;;;18.94;91.70;156229.63;5070931;28;20436;-83
2022/07/22 04:35:51;;;;;;;12.90;11.20;;;;;;;19.06;91.36;156262.19;5036198;28;20476;-85
2022/07/22 04:38:19;;;;;;;13.10;11.90;;;;;;;19.18;90.32;156293.50;5060461;28;20495;-85
2022/07/22 04:41:13;;;;;;;13.07;11.87;;;;;;;19.34;89.50;156335.19;5051121;28;20628;-83
2022/07/22 04:43:40;;;;;;;13.80;12.13;;;;;;;19.43;88.99;156358.69;5052960;28;20442;-85
2022/07/22 04:46:07;;;;;;;11.90;10.70;;;;;;;19.48;89.65;156370.44;5071092;28;20592;-85
2022/07/22 04:48:36;;;;;;;13.30;12.07;;;;;;;19.68;87.90;156421.25;5039734;28;20445;-85
2022/07/22 04:51:04;;;;;;;14.00;12.43;;;;;;;19.68;87.55;156421.25;5056695;28;20446;-84
2022/07/22 04:53:32;;;;;;;12.17;10.97;;;;;;;19.78;88.09;156448.63;5056133;28;20441;-85
2022/07/22 04:56:00;;;;;;;13.33;12.07;;;;;;;19.93;86.53;156486.47;5071864;28;20446;-85
2022/07/22 04:58:28;;;;;;;12.33;11.23;;;;;;;20.07;86.65;156522.94;5053083;28;20518;-84
2022/07/22 05:00:55;;;;;;;12.23;11.07;;;;;;;20.26;85.45;156572.56;5036258;28;20439;-85
2022/07/22 05:03:24;;;;;;;12.17;10.97;;;;;;;20.48;85.04;156629.97;5052824;28;20447;-84
2022/07/22 05:05:51;;;;;;;13.00;11.70;;;;;;;20.63;83.09;156669.09;5052755;28;20471;-85
2022/07/22 05:08:25;;;;;;;12.53;11.30;;;;;;;20.72;82.68;156691.28;5036088;28;20771;-85
2022/07/22 05:10:53;;;;;;;13.57;12.27;;;;;;;20.84;82.51;156721.28;5036250;28;20439;-84
2022/07/22 05:13:20;;;;;;;12.53;11.33;;;;;;;21.03;83.20;156772.19;5052273;28;20804;-84
2022/07/22 05:15:48;;;;;;;13.60;12.30;;;;;;;21.13;82.34;156797.00;5052786;28;20489;-84
2022/07/22 05:18:15;;;;;;;13.50;12.20;;;;;;;21.02;83.00;156769.56;5052937;28;20525;-84
2022/07/22 05:20:42;;;;;;;16.30;12.30;;;;;;;21.14;81.76;156799.63;5065456;28;20443;-84
2022/07/22 05:23:08;;;;;;;13.40;12.10;;;;;;;21.32;81.92;156846.63;5053850;28;20427;-84
2022/07/22 05:25:37;;;;;;;13.43;12.07;;;;;;;21.36;78.65;156857.09;5035804;28;20477;-84
2022/07/22 05:28:05;;;;;;;12.73;11.53;;;;;;;21.27;78.82;156832.25;5053631;28;20429;-84
2022/07/22 05:30:34;;;;;;;12.53;11.23;;;;;;;21.16;79.71;156804.84;5036200;28;20854;-84
2022/07/22 05:33:04;;;;;;;12.73;11.53;;;;;;;21.40;79.57;156867.50;5035683;28;20447;-84
2022/07/22 05:35:54;;;;;;;13.33;12.03;;;;;;;21.53;78.28;156901.44;5024415;28;20979;-83
2022/07/22 05:38:21;;;;;;;12.80;11.50;;;;;;;21.76;78.12;156961.47;5015784;28;20829;-83
2022/07/22 05:40:48;;;;;;;13.00;11.83;;;;;;;21.77;76.77;156964.09;5016025;28;20825;-83
2022/07/22 05:43:15;;;;;;;12.90;11.70;;;;;;;21.77;77.01;156964.09;5015960;28;20444;-83
2022/07/22 05:45:42;;;;;;;14.77;11.60;;;;;;;21.72;76.76;156951.06;5023110;28;20883;-85
2022/07/22 05:48:10;;;;;;;13.67;12.47;;;;;;;21.66;76.82;156935.38;5036040;28;20810;-85
2022/07/22 05:50:37;;;;;;;13.03;11.83;;;;;;;21.72;79.15;156949.75;5035767;28;20425;-85
2022/07/22 05:53:04;;;;;;;12.77;11.67;;;;;;;21.92;76.31;157000.72;5018898;28;20439;-84
2022/07/22 05:55:30;;;;;;;12.60;11.17;;;;;;;22.07;76.36;157041.22;5035356;28;20910;-85
2022/07/22 05:57:58;;;;;;;13.10;11.80;;;;;;;22.37;75.74;157118.28;5044067;28;20473;-85
2022/07/22 06:00:25;;;;;;;17.13;12.80;;;;;;;22.60;74.50;157178.34;5038992;28;20445;-85
2022/07/22 06:02:52;;;;;;;13.63;12.33;;;;;;;22.86;74.37;157245.00;5037522;28;20442;-85
2022/07/22 06:05:22;;;;;;;13.97;12.47;;;;;;;22.93;73.32;157263.28;5038324;28;20449;-85
2022/07/22 06:07:49;;;;;;;13.33;12.13;;;;;;;22.89;73.61;157254.16;5038898;28;20438;-85
2022/07/22 06:10:26;;;;;;;12.83;11.63;;;;;;;23.23;72.49;157340.41;5055414;28;20452;-85
2022/07/22 06:12:53;;;;;;;14.40;12.47;;;;;;;23.46;71.35;157400.56;5055278;28;20446;-85
2022/07/22 06:15:20;;;;;;;13.13;11.93;;;;;;;23.55;71.73;157424.09;5054651;28;20854;-85
2022/07/22 06:17:48;;;;;;;13.87;12.50;;;;;;;23.80;69.97;157489.44;5055042;28;20540;-85
2022/07/22 06:20:15;;;;;;;13.63;12.33;;;;;;;23.85;68.98;157501.25;5043401;28;20435;-85
2022/07/22 06:22:43;;;;;;;13.70;12.40;;;;;;;23.91;68.72;157518.22;5018656;28;20438;-85
2022/07/22 06:25:10;;;;;;;14.77;13.27;;;;;;;24.12;70.07;157573.19;5017872;28;20861;-86
2022/07/22 06:27:37;;;;;;;16.03;14.33;;;;;;;24.23;67.91;157601.97;5051705;28;20441;-85
2022/07/22 06:30:08;;;;;;;17.00;13.37;;;;;;;24.01;68.59;157544.34;5018064;28;20461;-86
2022/07/22 06:32:35;;;;;;;14.30;12.90;;;;;;;24.40;68.42;157645.13;5035010;28;20859;-87
2022/07/22 06:35:02;;;;;;;13.97;12.57;;;;;;;24.90;67.11;157774.69;5018725;28;20435;-88
2022/07/22 06:37:29;;;;;;;14.87;13.33;;;;;;;25.03;65.86;157808.69;5048419;28;20564;-88
2022/07/22 06:39:57;;;;;;;15.37;13.97;;;;;;;25.29;65.26;157875.44;5037986;28;20527;-88
2022/07/22 06:42:32;;;;;;;15.40;13.80;;;;;;;25.59;62.78;157954.03;5038068;28;21014;-88
2022/07/22 06:45:18;;;;;;;14.10;12.60;;;;;;;25.28;62.92;157874.09;5054082;28;20457;-87
2022/07/22 06:48:07;;;;;;;14.30;12.97;;;;;;;25.33;62.75;157887.22;5071538;28;20411;-88
2022/07/22 06:50:33;;;;;;;14.37;12.90;;;;;;;25.59;62.93;157952.69;5053952;28;20438;-88
2022/07/22 06:53:05;;;;;;;15.87;14.23;;;;;;;25.63;61.95;157963.19;5050765;28;20533;-88
2022/07/22 06:55:34;;;;;;;15.60;14.20;;;;;;;25.55;61.27;157942.25;5032014;28;20454;-86
2022/07/22 06:58:06;;;;;;;13.33;12.03;;;;;;;25.89;61.63;158031.25;5043902;28;20481;-87
2022/07/22 07:00:32;;;;;;;14.63;13.33;;;;;;;26.09;59.86;158082.28;5071344;28;20438;-87
2022/07/22 07:03:35;;;;;;;16.20;14.80;;;;;;;25.97;59.27;158052.22;5008296;28;20926;-80
2022/07/22 07:06:05;;;;;;;15.60;14.20;;;;;;;26.02;61.37;158065.31;5024618;28;20533;-83
2022/07/22 07:08:51;;;;;;;14.23;12.97;;;;;;;26.09;60.12;158082.28;5071955;28;20448;-82
2022/07/22 07:11:19;;;;;;;16.53;14.83;;;;;;;25.85;60.17;158020.78;5052729;28;20442;-82
2022/07/22 07:13:46;;;;;;;16.07;14.40;;;;;;;25.91;60.31;158037.81;5037043;28;21050;-82
2022/07/22 07:16:13;;;;;;;14.70;13.50;;;;;;;26.37;59.94;158156.97;5070300;28;20469;-82
2022/07/22 07:18:40;;;;;;;13.80;12.60;;;;;;;26.73;59.05;158248.69;5054098;28;20976;-82
2022/07/22 07:21:07;;;;;;;15.50;14.20;;;;;;;27.01;56.95;158322.06;5034718;28;20446;-82
2022/07/22 07:23:34;;;;;;;15.80;14.33;;;;;;;26.76;57.54;158257.88;5051800;28;20643;-82
2022/07/22 07:26:00;;;;;;;15.17;13.87;;;;;;;26.98;58.06;158314.25;5017080;28;20419;-83
2022/07/22 07:28:30;;;;;;;16.23;14.63;;;;;;;26.95;57.48;158306.38;5034446;28;20447;-82
2022/07/22 07:31:03;;;;;;;14.80;13.50;;;;;;;27.34;57.68;158408.56;5033898;28;20426;-83
2022/07/22 07:33:30;;;;;;;15.13;13.77;;;;;;;27.62;55.81;158482.00;5017095;28;20450;-83
2022/07/22 07:35:58;;;;;;;15.10;13.37;;;;;;;27.48;56.03;158445.28;5033228;28;20542;-82
2022/07/22 07:38:41;;;;;;;14.47;13.07;;;;;;;27.50;56.02;158450.56;5033000;28;20474;-83
2022/07/22 07:41:13;;;;;;;14.10;12.80;;;;;;;27.84;54.94;158537.03;5033734;28;20442;-82
2022/07/22 07:43:42;;;;;;;15.07;13.80;;;;;;;27.59;55.37;158474.13;5033628;28;20505;-82
2022/07/22 07:46:09;;;;;;;16.10;14.60;;;;;;;27.31;55.60;158400.69;5068351;28;20786;-83
2022/07/22 07:48:36;;;;;;;13.37;12.07;;;;;;;27.58;55.77;158471.53;5053789;28;20967;-83
2022/07/22 07:51:03;;;;;;;14.83;13.37;;;;;;;27.66;55.13;158491.19;5046735;28;20773;-82
2022/07/22 07:53:31;;;;;;;15.20;13.67;;;;;;;27.29;56.49;158395.47;5035329;28;20944;-82
2022/07/22 07:55:58;;;;;;;15.37;13.77;;;;;;;27.60;56.77;158475.44;5051119;28;20477;-82
2022/07/22 07:58:25;;;;;;;13.30;12.10;;;;;;;27.96;55.41;158569.81;5046670;28;20484;-84
2022/07/22 08:00:53;;;;;;;15.63;13.43;;;;;;;28.16;54.59;158621.00;5053196;28;20438;-84
2022/07/22 08:03:20;;;;;;;14.00;12.80;;;;;;;27.99;54.49;158576.34;5036517;28;20442;-82
2022/07/22 08:05:47;;;;;;;12.47;11.40;;;;;;;28.27;52.43;158651.19;5052086;28;20512;-82
2022/07/22 08:08:18;;;;;;;13.60;12.20;;;;;;;28.24;53.27;158641.97;5053075;28;20441;-82
2022/07/22 08:10:45;;;;;;;14.83;13.47;;;;;;;27.92;54.68;158558.03;5053080;28;20474;-82
2022/07/22 08:13:24;;;;;;;15.13;13.80;;;;;;;28.15;53.66;158619.69;5071217;28;20464;-82
2022/07/22 08:16:10;;;;;;;16.00;12.90;;;;;;;28.03;54.27;158588.25;5068316;28;21315;-83
2022/07/22 08:18:38;;;;;;;14.27;13.07;;;;;;;28.02;54.26;158584.28;5039062;28;20485;-82
2022/07/22 08:21:05;;;;;;;15.43;14.10;;;;;;;27.67;54.54;158495.09;5055967;28;20470;-82
2022/07/22 08:23:53;;;;;;;13.70;12.60;;;;;;;28.05;54.10;158592.16;5076659;28;20796;-82
2022/07/22 08:26:20;;;;;;;14.20;12.07;;;;;;;28.48;54.93;158704.94;5076593;28;20445;-82
2022/07/22 08:28:47;;;;;;;13.37;12.17;;;;;;;28.88;51.57;158809.91;5060252;28;20447;-82
2022/07/22 08:31:15;;;;;;;13.27;12.00;;;;;;;29.21;51.19;158895.19;5094879;28;20486;-82
2022/07/22 08:33:42;;;;;;;12.20;11.20;;;;;;;29.36;50.59;158933.25;5089131;28;20450;-82
2022/07/22 08:36:09;;;;;;;13.53;12.33;;;;;;;29.06;49.92;158854.47;5072713;28;20445;-82
2022/07/22 08:38:36;;;;;;;12.43;11.27;;;;;;;29.17;50.74;158884.66;5040133;28;20474;-82
2022/07/22 08:41:04;;;;;;;12.50;11.50;;;;;;;29.16;50.07;158882.03;5073088;28;20519;-82
2022/07/22 08:43:36;;;;;;;12.70;11.70;;;;;;;28.77;50.17;158779.72;5056765;28;20785;-82
2022/07/22 08:46:03;;;;;;;13.73;12.43;;;;;;;28.78;50.68;158783.63;5072612;28;20430;-82
2022/07/22 08:48:38;;;;;;;12.77;11.53;;;;;;;28.71;51.53;158765.28;5039037;28;20445;-82
2022/07/22 08:51:22;;;;;;;12.47;11.47;;;;;;;29.01;50.21;158842.69;5074252;28;20414;-82
2022/07/22 08:54:00;;;;;;;12.13;11.13;;;;;;;29.05;51.00;158851.84;5038835;28;20468;-82
2022/07/22 08:56:27;;;;;;;11.57;10.67;;;;;;;29.64;49.12;159005.41;5072834;28;20438;-82
2022/07/22 08:58:54;;;;;;;12.17;11.00;;;;;;;29.88;47.11;159069.78;5056524;28;20482;-83
2022/07/22 09:01:21;;;;;;;11.47;10.30;;;;;;;29.99;47.89;159098.66;5039878;28;20534;-82
2022/07/22 09:03:55;;;;;;;14.70;13.53;;;;;;;30.03;48.78;159109.13;5039533;28;20453;-82
2022/07/22 09:06:25;;;;;;;13.50;12.20;;;;;;;29.78;48.97;159042.16;5056013;28;20905;-82
2022/07/22 09:08:54;;;;;;;13.23;12.10;;;;;;;29.68;49.38;159017.19;5039707;28;20516;-82
2022/07/22 09:11:40;;;;;;;12.93;11.73;;;;;;;29.17;48.52;158884.66;5056143;28;20915;-82
2022/07/22 09:14:44;;;;;;;12.87;11.57;;;;;;;28.94;49.88;158825.59;5050733;28;20932;-82
2022/07/22 09:17:35;;;;;;;13.50;12.30;;;;;;;28.87;50.93;158807.25;5039162;28;20441;-84
2022/07/22 09:20:22;;;;;;;12.97;11.87;;;;;;;28.63;50.75;158742.97;5033062;28;20509;-82
2022/07/22 09:23:12;;;;;;;12.60;11.60;;;;;;;28.88;50.45;158809.91;5016163;28;20436;-82
2022/07/22 09:25:41;;;;;;;12.97;11.77;;;;;;;28.71;50.99;158765.28;5033582;28;20506;-82
2022/07/22 09:28:24;;;;;;;12.80;11.70;;;;;;;28.26;51.56;158647.22;5032576;28;20420;-82
2022/07/22 09:31:27;;;;;;;13.73;12.53;;;;;;;28.32;50.83;158664.28;4999229;28;20482;-82
2022/07/22 09:33:57;;;;;;;13.20;10.83;;;;;;;28.68;50.98;158756.09;5021712;28;20445;-83
2022/07/22 09:36:29;;;;;;;12.73;11.73;;;;;;;29.07;50.78;158857.13;5053442;28;20789;-82
2022/07/22 09:38:57;;;;;;;13.33;12.10;;;;;;;29.09;48.81;158862.34;5035735;28;20479;-83
2022/07/22 09:41:24;;;;;;;14.50;13.10;;;;;;;28.76;49.56;158778.41;5019527;28;20470;-83
2022/07/22 09:43:51;;;;;;;11.80;10.90;;;;;;;28.01;51.28;158582.91;5042488;28;20457;-82
2022/07/22 09:46:18;;;;;;;11.80;10.80;;;;;;;28.41;51.23;158685.25;5038781;28;20513;-82
2022/07/22 09:49:03;;;;;;;12.07;10.97;;;;;;;28.83;49.92;158796.75;5055575;28;20595;-82
2022/07/22 09:51:43;;;;;;;12.93;11.60;;;;;;;28.63;49.57;158742.97;5038781;28;20438;-83
2022/07/22 09:54:48;;;;;;;12.30;11.30;;;;;;;28.79;50.43;158784.94;4991320;28;20496;-82
2022/07/22 09:57:15;;;;;;;12.30;11.30;;;;;;;29.14;49.15;158876.78;4991499;28;20485;-82
2022/07/22 09:59:41;;;;;;;12.37;11.37;;;;;;;29.04;49.79;158849.25;5014079;28;20885;-83
2022/07/22 10:02:42;;;;;;;12.53;11.30;;;;;;;29.07;50.10;158858.38;5035346;28;20451;-82
2022/07/22 10:05:12;;;;;;;13.13;11.93;;;;;;;28.87;49.40;158807.25;5018572;28;20455;-84
2022/07/22 10:07:42;;;;;;;12.13;11.23;;;;;;;29.03;50.30;158847.91;5053142;28;20435;-84
2022/07/22 10:10:11;;;;;;;12.90;11.70;;;;;;;28.96;49.39;158830.84;5018907;28;20485;-82
2022/07/22 10:12:39;;;;;;;12.60;11.70;;;;;;;29.01;49.33;158841.38;5045356;28;20437;-83
2022/07/22 10:15:08;;;;;;;12.70;11.70;;;;;;;28.76;51.69;158778.41;5052876;28;20949;-83
2022/07/22 10:17:38;;;;;;;11.93;11.00;;;;;;;28.84;50.31;158799.38;5017862;28;20446;-82
2022/07/22 10:20:06;;;;;;;12.77;11.77;;;;;;;29.28;49.76;158913.53;5048402;28;20451;-82
2022/07/22 10:22:49;;;;;;;12.10;11.00;;;;;;;29.09;50.42;158862.34;5031594;28;20490;-82
2022/07/22 10:25:18;;;;;;;12.33;11.43;;;;;;;28.61;50.64;158739.03;5014809;28;20462;-82
2022/07/22 10:27:47;;;;;;;12.53;11.43;;;;;;;28.45;51.12;158697.06;4998574;28;20527;-82
2022/07/22 10:30:16;;;;;;;11.53;10.67;;;;;;;28.86;50.53;158803.31;5015336;28;20463;-82
2022/07/22 10:32:43;;;;;;;12.90;11.80;;;;;;;29.65;49.16;159009.38;5014861;28;20440;-82
2022/07/22 10:35:26;;;;;;;11.93;10.93;;;;;;;30.27;47.58;159169.50;5048836;28;20453;-84
2022/07/22 10:38:00;;;;;;;12.60;11.50;;;;;;;30.06;47.33;159117.00;5018148;28;20438;-84
2022/07/22 10:40:29;;;;;;;13.20;11.80;;;;;;;29.87;48.20;159065.81;5053263;28;20502;-84
2022/07/22 10:43:21;;;;;;;12.70;11.70;;;;;;;29.00;49.53;158840.03;5034336;28;20447;-84
2022/07/22 10:45:50;;;;;;;10.60;9.80;;;;;;;28.99;50.14;158837.44;5034119;28;20443;-84
2022/07/22 10:48:19;;;;;;;11.40;10.40;;;;;;;29.36;50.24;158933.25;5037447;28;20438;-82
2022/07/22 10:50:55;;;;;;;11.40;10.40;;;;;;;29.71;47.41;159023.75;5072461;28;20556;-82
2022/07/22 10:53:25;;;;;;;11.37;10.27;;;;;;;29.34;48.41;158927.97;5032441;28;20418;-82
2022/07/22 10:56:08;;;;;;;11.67;10.67;;;;;;;29.01;50.44;158842.69;5030630;28;20447;-82
2022/07/22 10:59:16;;;;;;;11.97;10.47;;;;;;;28.99;49.75;158838.72;5046947;28;20522;-82
2022/07/22 11:01:46;;;;;;;11.67;10.70;;;;;;;29.22;50.06;158896.50;5044519;28;20474;-84
2022/07/22 11:04:16;;;;;;;11.70;10.70;;;;;;;29.47;49.56;158962.09;5033688;28;20455;-83
2022/07/22 11:06:43;;;;;;;10.60;9.70;;;;;;;29.71;48.31;159025.09;5052882;28;20450;-82
2022/07/22 11:09:13;;;;;;;10.80;9.97;;;;;;;29.67;48.43;159014.59;5061778;28;20526;-82
2022/07/22 11:11:44;;;;;;;11.97;10.97;;;;;;;28.95;48.39;158826.94;5072133;28;20423;-83
2022/07/22 11:14:16;;;;;;;11.60;10.67;;;;;;;28.73;49.58;158769.19;5072133;28;20442;-82
2022/07/22 11:16:43;;;;;;;10.43;9.63;;;;;;;28.87;52.62;158807.25;5070977;28;20544;-83
2022/07/22 11:19:56;;;;;;;11.47;10.47;;;;;;;29.02;49.88;158844.00;5071746;28;20509;-75
2022/07/22 11:22:41;;;;;;;11.83;10.73;;;;;;;29.31;48.72;158920.16;5060822;28;20434;-75
2022/07/22 11:25:10;;;;;;;11.53;10.10;;;;;;;28.88;49.45;158809.91;5049346;28;20503;-75
2022/07/22 11:27:37;;;;;;;11.00;10.10;;;;;;;28.82;49.08;158794.16;5053873;28;20446;-75